createdAt,value
2022-09-15T00:00:19.467Z,83.33
2022-09-15T00:03:07.365Z,83.60
2022-09-15T00:05:55.478Z,83.13
2022-09-15T00:08:43.584Z,82.86
2022-09-15T00:11:33.582Z,83.42
2022-09-15T00:14:21.533Z,83.07
2022-09-15T00:17:09.138Z,82.90
2022-09-15T00:19:57.072Z,83.71
2022-09-15T00:22:44.622Z,84.04
2022-09-15T00:25:32.434Z,84.08
2022-09-15T00:28:21.533Z,83.86
2022-09-15T00:31:12.165Z,84.16
2022-09-15T00:34:01.086Z,83.46
2022-09-15T00:36:48.997Z,83.22
2022-09-15T00:39:36.566Z,84.39
2022-09-15T00:42:24.397Z,84.68
2022-09-15T00:45:16.542Z,84.74
2022-09-15T00:48:05.585Z,85.93
2022-09-15T00:50:55.814Z,85.75
2022-09-15T00:53:44.455Z,86.20
2022-09-15T00:56:33.980Z,85.69
2022-09-15T00:59:24.104Z,85.75
2022-09-15T01:02:25.224Z,85.90
2022-09-15T01:05:15.908Z,85.92
2022-09-15T01:08:07.263Z,85.96
2022-09-15T01:10:55.474Z,85.93
2022-09-15T01:13:44.128Z,86.93
2022-09-15T01:17:02.726Z,86.31
2022-09-15T01:19:57.902Z,86.92
2022-09-15T01:23:04.186Z,86.69
2022-09-15T01:26:13.737Z,86.42
2022-09-15T01:29:38.136Z,86.65
2022-09-15T01:32:36.900Z,87.12
2022-09-15T01:35:31.711Z,86.18
2022-09-15T01:38:21.894Z,86.59
2022-09-15T01:41:12.260Z,86.74
2022-09-15T01:44:13.629Z,87.82
2022-09-15T01:47:08.311Z,88.58
2022-09-15T01:50:01.091Z,87.23
2022-09-15T01:52:50.211Z,86.80
2022-09-15T01:55:43.379Z,88.82
2022-09-15T01:58:32.346Z,89.37
2022-09-15T02:01:34.650Z,89.44
2022-09-15T02:04:22.455Z,89.77
2022-09-15T02:07:16.019Z,89.35
2022-09-15T02:10:09.996Z,90.17
2022-09-15T02:13:17.203Z,90.03
2022-09-15T02:16:08.960Z,91.03
2022-09-15T02:19:12.002Z,90.04
2022-09-15T02:22:18.095Z,89.81
2022-09-15T02:25:11.846Z,90.79
2022-09-15T02:28:03.808Z,91.26
2022-09-15T02:30:54.265Z,88.93
2022-09-15T02:33:43.336Z,90.62
2022-09-15T02:36:31.333Z,91.32
2022-09-15T02:39:22.417Z,91.23
2022-09-15T02:42:09.804Z,89.05
2022-09-15T02:44:58.282Z,89.05
2022-09-15T02:47:46.097Z,89.41
2022-09-15T02:50:33.962Z,89.66
2022-09-15T02:53:21.452Z,89.03
2022-09-15T02:56:09.286Z,89.76
2022-09-15T02:58:56.814Z,89.56
2022-09-15T03:01:44.773Z,89.66
2022-09-15T03:04:32.496Z,89.06
2022-09-15T03:07:20.421Z,87.77
2022-09-15T03:10:09.584Z,87.74
2022-09-15T03:12:57.437Z,87.22
2022-09-15T03:15:44.963Z,86.40
2022-09-15T03:18:32.884Z,86.74
2022-09-15T03:21:21.028Z,87.29
2022-09-15T03:24:08.959Z,87.34
2022-09-15T03:26:56.444Z,87.46
2022-09-15T03:29:44.447Z,87.43
2022-09-15T03:32:31.952Z,86.96
2022-09-15T03:35:19.751Z,87.53
2022-09-15T03:38:07.275Z,86.51
2022-09-15T03:41:03.403Z,86.49
2022-09-15T03:43:50.986Z,86.86
2022-09-15T03:46:38.765Z,87.78
2022-09-15T03:49:26.262Z,87.24
2022-09-15T03:52:14.073Z,87.16
2022-09-15T03:55:01.568Z,86.75
2022-09-15T03:57:49.373Z,87.73
2022-09-15T04:00:36.927Z,88.83
2022-09-15T04:03:24.805Z,87.96
2022-09-15T04:06:12.627Z,88.94
2022-09-15T04:09:00.401Z,90.35
2022-09-15T04:11:47.922Z,91.24
2022-09-15T04:14:35.710Z,90.97
2022-09-15T04:17:23.173Z,92.04
2022-09-15T04:20:12.031Z,92.53
2022-09-15T04:22:59.516Z,93.00
2022-09-15T04:26:01.617Z,92.79
2022-09-15T04:28:49.179Z,91.74
2022-09-15T04:31:37.157Z,91.15
2022-09-15T04:34:24.806Z,90.84
2022-09-15T04:37:12.685Z,91.51
2022-09-15T04:40:00.420Z,91.42
2022-09-15T04:42:48.219Z,92.09
2022-09-15T04:45:35.706Z,91.84
2022-09-15T04:48:24.076Z,92.86
2022-09-15T04:51:14.329Z,92.13
2022-09-15T04:54:02.114Z,91.38
2022-09-15T04:56:49.623Z,90.96
2022-09-15T04:59:37.506Z,91.22
2022-09-15T05:02:25.105Z,89.96
2022-09-15T05:05:12.941Z,91.65
2022-09-15T05:08:00.443Z,91.87
2022-09-15T05:10:48.239Z,92.76
2022-09-15T05:13:36.448Z,93.32
2022-09-15T05:16:27.273Z,93.45
2022-09-15T05:19:14.849Z,93.71
2022-09-15T05:22:02.677Z,92.44
2022-09-15T05:24:50.192Z,91.95
2022-09-15T05:27:37.998Z,91.93
2022-09-15T05:30:37.749Z,90.79
2022-09-15T05:33:26.637Z,92.66
2022-09-15T05:36:14.740Z,93.73
2022-09-15T05:39:02.595Z,92.43
2022-09-15T05:41:50.097Z,92.88
2022-09-15T05:44:37.918Z,93.64
2022-09-15T05:47:25.398Z,93.40
2022-09-15T05:50:13.232Z,93.22
2022-09-15T05:53:00.714Z,93.76
2022-09-15T05:55:48.534Z,93.42
2022-09-15T05:58:36.039Z,93.66
2022-09-15T06:01:26.919Z,93.71
2022-09-15T06:04:14.732Z,91.27
2022-09-15T06:07:02.368Z,90.39
2022-09-15T06:09:50.165Z,92.79
2022-09-15T06:12:37.700Z,92.75
2022-09-15T06:15:25.845Z,92.04
2022-09-15T06:18:13.344Z,90.22
2022-09-15T06:21:06.095Z,88.62
2022-09-15T06:24:04.572Z,87.66
2022-09-15T06:26:52.427Z,88.68
2022-09-15T06:29:39.889Z,89.06
2022-09-15T06:32:28.192Z,88.09
2022-09-15T06:35:15.897Z,88.94
2022-09-15T06:38:03.688Z,89.89
2022-09-15T06:40:57.929Z,89.80
2022-09-15T06:43:46.656Z,89.58
2022-09-15T06:46:36.332Z,90.11
2022-09-15T06:49:24.489Z,89.69
2022-09-15T06:52:12.019Z,89.70
2022-09-15T06:54:59.794Z,88.98
2022-09-15T06:57:47.268Z,88.39
2022-09-15T07:00:35.041Z,86.75
2022-09-15T07:03:22.649Z,86.55
2022-09-15T07:06:11.067Z,87.42
2022-09-15T07:08:59.079Z,85.30
2022-09-15T07:11:46.872Z,86.40
2022-09-15T07:14:34.347Z,86.37
2022-09-15T07:17:22.116Z,85.28
2022-09-15T07:20:09.826Z,84.87
2022-09-15T07:22:57.608Z,84.29
2022-09-15T07:25:45.438Z,85.54
2022-09-15T07:28:33.639Z,83.34
2022-09-15T07:31:22.709Z,81.68
2022-09-15T07:34:10.504Z,83.16
2022-09-15T07:36:57.991Z,84.73
2022-09-15T07:39:45.843Z,86.04
2022-09-15T07:42:35.423Z,84.46
2022-09-15T07:45:23.521Z,83.74
2022-09-15T07:48:11.062Z,82.99
2022-09-15T07:50:58.848Z,82.97
2022-09-15T07:53:47.847Z,82.46
2022-09-15T07:56:35.647Z,82.07
2022-09-15T07:59:23.139Z,81.07
2022-09-15T08:02:16.753Z,80.63
2022-09-15T08:05:04.807Z,78.56
2022-09-15T08:07:52.295Z,78.70
2022-09-15T08:10:40.374Z,77.87
2022-09-15T08:13:29.044Z,77.19
2022-09-15T08:16:19.862Z,77.01
2022-09-15T08:19:07.214Z,77.31
2022-09-15T08:21:54.889Z,75.36
2022-09-15T08:24:42.387Z,76.19
2022-09-15T08:27:30.167Z,75.14
2022-09-15T08:30:17.646Z,73.43
2022-09-15T08:33:05.407Z,73.44
2022-09-15T08:35:53.410Z,72.96
2022-09-15T08:38:42.946Z,73.28
2022-09-15T08:41:34.319Z,73.03
2022-09-15T08:44:43.391Z,71.54
2022-09-15T08:47:43.330Z,70.52
2022-09-15T08:50:39.319Z,68.40
2022-09-15T08:53:34.255Z,68.54
2022-09-15T08:56:22.040Z,66.89
2022-09-15T08:59:13.952Z,66.11
2022-09-15T09:02:38.322Z,65.40
2022-09-15T09:05:41.006Z,64.16
2022-09-15T09:08:34.520Z,63.59
2022-09-15T09:11:59.500Z,63.21
2022-09-15T09:15:08.535Z,64.09
2022-09-15T09:18:10.918Z,63.53
2022-09-15T09:21:13.491Z,63.42
2022-09-15T09:24:28.590Z,63.55
2022-09-15T09:27:19.123Z,62.86
2022-09-15T09:30:21.126Z,59.84
2022-09-15T09:33:24.127Z,57.33
2022-09-15T09:36:12.108Z,59.18
2022-09-15T09:39:02.068Z,58.90
2022-09-15T09:41:49.728Z,57.71
2022-09-15T09:44:37.564Z,56.86
2022-09-15T09:47:27.508Z,56.78
2022-09-15T09:50:36.635Z,55.05
2022-09-15T09:53:32.178Z,54.72
2022-09-15T09:56:25.115Z,54.42
2022-09-15T09:59:40.652Z,52.78
2022-09-15T10:02:28.936Z,51.43
2022-09-15T10:05:18.921Z,50.02
2022-09-15T10:08:06.572Z,49.77
2022-09-15T10:10:57.085Z,50.17
2022-09-15T10:13:54.348Z,49.75
2022-09-15T10:16:42.179Z,50.67
2022-09-15T10:19:31.995Z,52.69
2022-09-15T10:22:28.433Z,51.97
2022-09-15T10:25:21.929Z,51.45
2022-09-15T10:28:17.125Z,49.77
2022-09-15T10:31:10.213Z,50.11
2022-09-15T10:33:58.065Z,50.59
2022-09-15T10:36:45.999Z,51.12
2022-09-15T10:39:49.878Z,50.80
2022-09-15T10:42:50.976Z,52.25
2022-09-15T10:45:39.917Z,50.82
2022-09-15T10:48:38.049Z,51.95
2022-09-15T10:51:53.080Z,51.04
2022-09-15T10:55:51.567Z,50.90
2022-09-15T10:58:48.605Z,49.64
2022-09-15T11:02:13.403Z,48.19
2022-09-15T11:05:28.933Z,48.69
2022-09-15T11:08:31.669Z,49.70
2022-09-15T11:11:54.878Z,49.19
2022-09-15T11:15:14.671Z,49.69
2022-09-15T11:18:25.360Z,51.13
2022-09-15T11:21:16.728Z,51.00
2022-09-15T11:24:25.528Z,50.90
2022-09-15T11:27:16.531Z,51.47
2022-09-15T11:30:22.264Z,51.92
2022-09-15T11:33:41.970Z,51.88
2022-09-15T11:36:47.400Z,52.40
2022-09-15T11:39:56.769Z,52.70
2022-09-15T11:43:06.243Z,53.39
2022-09-15T11:45:56.522Z,54.07
2022-09-15T11:48:50.241Z,55.27
2022-09-15T11:51:46.401Z,59.99
2022-09-15T11:54:42.862Z,60.48
2022-09-15T11:57:41.663Z,61.20
2022-09-15T12:00:29.512Z,61.35
2022-09-15T12:03:21.944Z,61.37
2022-09-15T12:06:14.382Z,62.70
2022-09-15T12:09:04.467Z,67.22
2022-09-15T12:11:55.411Z,74.37
2022-09-15T12:14:48.219Z,77.02
2022-09-15T12:17:43.574Z,78.22
2022-09-15T12:20:39.439Z,78.01
2022-09-15T12:23:32.080Z,78.26
2022-09-15T12:26:22.103Z,78.73
2022-09-15T12:29:21.667Z,75.37
2022-09-15T12:32:20.489Z,76.56
2022-09-15T12:35:16.957Z,74.77
2022-09-15T12:38:04.784Z,71.25
2022-09-15T12:40:59.037Z,70.00
2022-09-15T12:43:55.079Z,68.86
2022-09-15T12:46:51.318Z,67.70
2022-09-15T12:49:43.961Z,66.57
2022-09-15T12:53:00.880Z,64.07
2022-09-15T12:55:51.769Z,64.55
2022-09-15T12:58:45.052Z,63.67
2022-09-15T13:01:46.450Z,63.99
2022-09-15T13:04:43.052Z,62.65
2022-09-15T13:07:35.696Z,62.66
2022-09-15T13:10:43.186Z,62.80
2022-09-15T13:14:01.711Z,61.55
2022-09-15T13:16:54.669Z,63.95
2022-09-15T13:19:44.875Z,62.53
2022-09-15T13:22:34.673Z,62.85
2022-09-15T13:25:25.011Z,62.60
2022-09-15T13:28:12.502Z,63.22
2022-09-15T13:31:29.973Z,63.10
2022-09-15T13:35:04.386Z,70.63
2022-09-15T13:38:21.853Z,73.95
2022-09-15T13:41:32.427Z,77.79
2022-09-15T13:44:43.586Z,81.78
2022-09-15T13:47:52.599Z,83.54
2022-09-15T13:50:43.930Z,84.58
2022-09-15T13:53:42.971Z,85.21
2022-09-15T13:56:38.981Z,84.46
2022-09-15T13:59:31.306Z,84.03
2022-09-15T14:02:21.072Z,82.20
2022-09-15T14:05:08.546Z,81.08
2022-09-15T14:08:07.931Z,78.75
2022-09-15T14:10:57.140Z,78.13
2022-09-15T14:13:48.001Z,79.81
2022-09-15T14:16:39.054Z,81.78
2022-09-15T14:19:35.984Z,81.55
2022-09-15T14:22:34.429Z,80.30
2022-09-15T14:25:21.101Z,82.31
2022-09-15T14:28:07.095Z,84.28
2022-09-15T14:30:52.921Z,84.84
2022-09-15T14:33:40.258Z,85.92
2022-09-15T14:36:33.692Z,87.39
2022-09-15T14:39:21.965Z,88.62
2022-09-15T14:42:21.147Z,90.28
2022-09-15T14:48:17.370Z,93.30
2022-09-15T14:51:10.886Z,94.04
2022-09-15T14:54:00.121Z,94.31
2022-09-15T14:56:46.705Z,92.91
2022-09-15T15:00:01.043Z,91.22
2022-09-15T15:02:52.500Z,90.75
2022-09-15T15:05:48.770Z,90.29
2022-09-15T15:08:49.557Z,91.94
2022-09-15T15:11:39.149Z,93.54
2022-09-15T15:14:27.127Z,94.09
2022-09-15T15:17:26.939Z,95.55
2022-09-15T15:20:20.224Z,95.12
2022-09-15T15:23:24.097Z,96.81
2022-09-15T15:26:34.576Z,99.27
2022-09-15T15:29:37.028Z,100.00
2022-09-15T15:32:25.118Z,100.00
2022-09-15T15:35:16.973Z,100.00
2022-09-15T15:38:14.924Z,99.96
2022-09-15T15:41:05.017Z,99.91
2022-09-15T15:44:04.845Z,100.00
2022-09-15T15:47:01.358Z,100.00
2022-09-15T15:50:12.408Z,100.00
2022-09-15T15:52:59.277Z,100.00
2022-09-15T15:55:47.211Z,100.00
2022-09-15T15:58:34.758Z,100.00
2022-09-15T16:01:22.705Z,100.00
2022-09-15T16:04:11.266Z,100.00
2022-09-15T16:06:58.771Z,100.00
2022-09-15T16:09:47.439Z,100.00
2022-09-15T16:12:35.551Z,100.00
2022-09-15T16:15:23.504Z,100.00
2022-09-15T16:18:11.542Z,100.00
2022-09-15T16:20:59.375Z,100.00
2022-09-15T16:23:47.227Z,100.00
2022-09-15T16:26:34.996Z,100.00
2022-09-15T16:29:22.486Z,100.00
2022-09-15T16:32:21.451Z,100.00
2022-09-15T16:35:29.481Z,100.00
2022-09-15T16:38:20.957Z,100.00
2022-09-15T16:41:19.509Z,100.00
2022-09-15T16:44:16.548Z,100.00
2022-09-15T16:47:04.085Z,100.00
2022-09-15T16:49:51.893Z,100.00
2022-09-15T16:52:40.310Z,100.00
2022-09-15T16:55:31.971Z,100.00
2022-09-15T16:58:20.302Z,100.00
2022-09-15T17:01:16.742Z,100.00
2022-09-15T17:04:09.659Z,100.00
2022-09-15T17:06:57.499Z,100.00
2022-09-15T17:09:45.019Z,100.00
2022-09-15T17:12:32.832Z,100.00
2022-09-15T17:15:02.205Z,100.00
2022-09-15T17:17:29.950Z,100.00
2022-09-15T17:19:57.512Z,100.00
2022-09-15T17:22:24.949Z,100.00
2022-09-15T17:24:52.528Z,100.00
2022-09-15T17:27:19.851Z,100.00
2022-09-15T17:29:47.340Z,100.00
2022-09-15T17:32:15.098Z,100.00
2022-09-15T17:34:42.344Z,100.00
2022-09-15T17:37:09.740Z,100.00
2022-09-15T17:39:37.271Z,100.00
2022-09-15T17:42:04.644Z,100.00
2022-09-15T17:44:34.357Z,100.00
2022-09-15T17:47:04.732Z,100.00
2022-09-15T17:49:31.990Z,100.00
2022-09-15T17:51:59.886Z,100.00
2022-09-15T17:54:27.467Z,100.00
2022-09-15T17:56:54.828Z,100.00
2022-09-15T17:59:22.154Z,100.00
2022-09-15T18:01:49.785Z,100.00
2022-09-15T18:04:20.617Z,100.00
2022-09-15T18:06:47.895Z,100.00
2022-09-15T18:09:30.642Z,100.00
2022-09-15T18:12:05.847Z,100.00
2022-09-15T18:14:39.059Z,100.00
2022-09-15T18:17:06.679Z,100.00
2022-09-15T18:19:33.907Z,100.00
2022-09-15T18:22:01.163Z,100.00
2022-09-15T18:24:28.730Z,100.00
2022-09-15T18:26:56.245Z,100.00
2022-09-15T18:29:23.484Z,100.00
2022-09-15T18:31:51.279Z,100.00
2022-09-15T18:34:18.494Z,100.00
2022-09-15T18:36:45.740Z,100.00
2022-09-15T18:39:13.284Z,100.00
2022-09-15T18:41:40.575Z,100.00
2022-09-15T18:44:08.105Z,100.00
2022-09-15T18:46:35.744Z,100.00
2022-09-15T18:49:03.005Z,100.00
2022-09-15T18:51:50.613Z,100.00
2022-09-15T18:54:18.025Z,100.00
2022-09-15T18:56:45.498Z,100.00
2022-09-15T18:59:17.686Z,100.00
2022-09-15T19:01:46.334Z,100.00
2022-09-15T19:04:13.653Z,100.00
2022-09-15T19:06:40.908Z,100.00
2022-09-15T19:09:08.475Z,100.00
2022-09-15T19:11:35.713Z,100.00
2022-09-15T19:14:02.999Z,100.00
2022-09-15T19:16:53.784Z,100.00
2022-09-15T19:19:17.773Z,100.00
2022-09-15T19:21:45.613Z,100.00
2022-09-15T19:24:12.912Z,100.00
2022-09-15T19:26:40.254Z,100.00
2022-09-15T19:29:08.228Z,100.00
2022-09-15T19:31:39.808Z,100.00
2022-09-15T19:34:09.665Z,100.00
2022-09-15T19:36:39.514Z,100.00
2022-09-15T19:39:07.379Z,100.00
2022-09-15T19:41:35.013Z,100.00
2022-09-15T19:44:05.103Z,100.00
2022-09-15T19:46:32.541Z,100.00
2022-09-15T19:49:02.084Z,100.00
2022-09-15T19:51:29.675Z,100.00
2022-09-15T19:53:57.942Z,100.00
2022-09-15T19:56:27.443Z,100.00
2022-09-15T19:58:56.361Z,100.00
2022-09-15T20:01:28.484Z,100.00
2022-09-15T20:03:57.432Z,100.00
2022-09-15T20:06:28.966Z,100.00
2022-09-15T20:09:03.694Z,100.00
2022-09-15T20:11:31.946Z,100.00
2022-09-15T20:14:04.026Z,100.00
2022-09-15T20:16:31.701Z,100.00
2022-09-15T20:18:59.467Z,100.00
2022-09-15T20:21:49.274Z,100.00
2022-09-15T20:24:20.059Z,100.00
2022-09-15T20:26:47.971Z,100.00
2022-09-15T20:29:15.852Z,100.00
2022-09-15T20:31:43.355Z,100.00
2022-09-15T20:34:10.977Z,100.00
2022-09-15T20:36:39.077Z,100.00
2022-09-15T20:39:09.098Z,100.00
2022-09-15T20:41:36.684Z,100.00
2022-09-15T20:44:04.227Z,100.00
2022-09-15T20:46:31.509Z,100.00
2022-09-15T20:48:59.112Z,100.00
2022-09-15T20:51:30.055Z,100.00
2022-09-15T20:53:58.500Z,100.00
2022-09-15T20:56:28.397Z,100.00
2022-09-15T20:58:57.461Z,100.00
2022-09-15T21:01:26.976Z,100.00
2022-09-15T21:03:55.165Z,100.00
2022-09-15T21:06:25.673Z,100.00
2022-09-15T21:08:53.868Z,100.00
2022-09-15T21:11:22.471Z,100.00
2022-09-15T21:13:50.485Z,100.00
2022-09-15T21:16:20.161Z,100.00
2022-09-15T21:18:48.620Z,100.00
2022-09-15T21:21:23.587Z,100.00
2022-09-15T21:23:55.945Z,100.00
2022-09-15T21:26:28.308Z,100.00
2022-09-15T21:28:56.457Z,100.00
2022-09-15T21:31:29.199Z,100.00
2022-09-15T21:33:57.761Z,100.00
2022-09-15T21:36:27.287Z,100.00
2022-09-15T21:38:56.417Z,100.00
2022-09-15T21:41:26.538Z,100.00
2022-09-15T21:43:54.410Z,100.00
2022-09-15T21:46:23.573Z,100.00
2022-09-15T21:48:51.504Z,100.00
2022-09-15T21:51:24.668Z,100.00
2022-09-15T21:53:54.078Z,100.00
2022-09-15T21:56:22.043Z,100.00
2022-09-15T21:58:49.301Z,100.00
2022-09-15T22:01:19.468Z,100.00
2022-09-15T22:04:00.983Z,100.00
2022-09-15T22:06:30.331Z,100.00
2022-09-15T22:08:59.234Z,100.00
2022-09-15T22:11:27.138Z,100.00
2022-09-15T22:13:58.481Z,100.00
2022-09-15T22:16:26.369Z,100.00
2022-09-15T22:18:53.851Z,100.00
2022-09-15T22:21:28.745Z,100.00
2022-09-15T22:23:57.600Z,100.00
2022-09-15T22:26:27.685Z,100.00
2022-09-15T22:28:55.825Z,100.00
2022-09-15T22:31:24.495Z,100.00
2022-09-15T22:33:52.505Z,100.00
2022-09-15T22:36:28.910Z,100.00
2022-09-15T22:38:58.415Z,100.00
2022-09-15T22:41:25.704Z,100.00
2022-09-15T22:43:53.171Z,100.00
2022-09-15T22:46:21.004Z,100.00
2022-09-15T22:48:48.502Z,100.00
2022-09-15T22:51:16.058Z,100.00
2022-09-15T22:53:43.939Z,100.00
2022-09-15T22:56:16.036Z,100.00
2022-09-15T22:58:44.122Z,100.00
2022-09-15T23:01:33.005Z,100.00
2022-09-15T23:04:02.922Z,100.00
2022-09-15T23:06:34.058Z,100.00
2022-09-15T23:09:05.246Z,100.00
2022-09-15T23:11:32.479Z,100.00
2022-09-15T23:14:00.606Z,100.00
2022-09-15T23:16:29.998Z,100.00
2022-09-15T23:18:57.364Z,100.00
2022-09-15T23:21:25.281Z,100.00
2022-09-15T23:23:54.115Z,100.00
2022-09-15T23:26:26.036Z,100.00
2022-09-15T23:28:54.000Z,100.00
2022-09-15T23:31:21.828Z,100.00
2022-09-15T23:33:49.415Z,100.00
2022-09-15T23:36:17.997Z,100.00
2022-09-15T23:38:45.744Z,100.00
2022-09-15T23:41:14.734Z,100.00
2022-09-15T23:43:42.613Z,100.00
2022-09-15T23:46:10.268Z,100.00
2022-09-15T23:48:38.132Z,100.00
2022-09-15T23:51:06.034Z,100.00
2022-09-15T23:53:34.287Z,100.00
2022-09-15T23:56:02.124Z,99.18
2022-09-15T23:58:29.820Z,99.95
